Latest Weather Observations for Hillarys Point Boat Harbour

IDW60801

Issued at 5:35 am WST Friday 1 August 2014 (issued every 30 minutes, with the page automatically refreshed every 10 minutes)

About weather observations | Map of weather stations | Latest weather observations for WA | Other Formats
Station Details ID: 009265 Name: HILLARYS BOAT HARBOUR NTC AWS Lat: -31.83 Lon: 115.74 Height: 0.0 m
Data from the previous 72 hours. | See also: Recent months for locations in Western Australia
Date/Time
WST
Temp
°C
App
Temp
°C
Dew
Point
Rel
Hum
%
Delta-T
°C
Wind Press
QNH
hPa
Press
MSL
hPa
Rain
since 9 am
mm
Dir
 
Spd
km/h
Gust
km/h
Spd
kts
Gust
kts
01/05:30am 7.2 - - - - E 7 11 4 6 1025.2 - -
01/05:00am 7.2 - - - - E 6 13 3 7 1025.3 1025.3 -
01/04:30am 6.8 - - - - E 6 9 3 5 1025.3 - -
01/04:00am 7.3 - - - - E 6 13 3 7 1025.4 1025.4 -
01/03:30am 7.4 - - - - E 6 11 3 6 1025.7 - -
01/03:00am 7.6 - - - - E 6 9 3 5 1025.9 1025.9 -
01/02:30am 8.3 - - - - ESE 4 9 2 5 1026.4 - -
01/02:00am 8.5 - - - - E 4 11 2 6 1026.8 1026.8 -
01/01:30am 8.8 - - - - SE 2 7 1 4 1027.0 - -
01/01:00am 8.9 - - - - ESE 2 7 1 4 1027.2 1027.2 -
01/12:30am 8.9 - - - - E 2 6 1 3 1027.4 - -
01/12:00am 9.4 - - - - E 2 6 1 3 1027.4 1027.4 -
 
Date/Time
WST
Temp
°C
App
Temp
°C
Dew
Point
Rel
Hum
%
Delta-T
°C
Wind Press
QNH
hPa
Press
MSL
hPa
Rain
since 9 am
mm
Dir
 
Spd
km/h
Gust
km/h
Spd
kts
Gust
kts
31/11:30pm 9.5 - - - - E 4 6 2 3 1027.4 - -
31/11:00pm 9.6 - - - - ENE 6 7 3 4 1027.7 1027.7 -
31/10:30pm 9.8 - - - - E 6 9 3 5 1027.7 - -
31/10:00pm 10.1 - - - - E 6 9 3 5 1027.9 1027.9 -
31/09:30pm 10.3 - - - - ENE 6 7 3 4 1027.8 - -
31/09:00pm 10.9 - - - - ENE 7 9 4 5 1027.5 1027.5 -
31/08:30pm 11.4 - - - - ENE 7 11 4 6 1027.2 - -
31/08:00pm 11.9 - - - - ENE 7 11 4 6 1026.9 1026.9 -
31/07:30pm 12.5 - - - - ENE 7 11 4 6 1026.8 - -
31/07:00pm 13.1 - - - - ENE 7 11 4 6 1026.6 1026.6 -
31/06:30pm 13.7 - - - - ENE 7 9 4 5 1026.3 - -
31/06:00pm 14.4 - - - - ENE 6 9 3 5 1026.0 1026.0 -
31/05:30pm 15.2 - - - - E 6 11 3 6 1025.6 - -
31/05:00pm 15.7 - - - - E 6 13 3 7 1025.3 1025.3 -
31/04:30pm 16.1 - - - - SE 4 13 2 7 1025.2 - -
31/04:00pm 16.1 - - - - SE 4 11 2 6 1025.1 1025.1 -
31/03:30pm 15.6 - - - - WSW 7 20 4 11 1025.1 - -
31/03:00pm 15.0 - - - - S 6 11 3 6 1025.1 1025.1 -
31/02:30pm 15.1 - - - - E 7 13 4 7 1025.2 - -
31/02:00pm 14.8 - - - - S 6 13 3 7 1025.3 1025.3 -
31/01:30pm 14.5 - - - - SSE 6 11 3 6 1025.7 - -
31/01:00pm 14.4 - - - - ESE 6 20 3 11 1026.0 1026.0 -
31/12:30pm 13.6 - - - - SSE 4 13 2 7 1026.7 - -
31/12:00pm 13.2 - - - - SSE 6 13 3 7 1027.2 1027.2 -
31/11:30am 13.1 - - - - SSE 6 13 3 7 1027.4 - -
31/11:00am 13.1 - - - - E 7 19 4 10 1027.6 1027.6 -
31/10:30am 12.5 - - - - SSE 4 11 2 6 1027.7 - -
31/10:00am 12.5 - - - - E 4 11 2 6 1027.6 1027.6 -
31/09:30am 12.2 - - - - SE 4 15 2 8 1027.4 - -
31/09:00am 11.7 - - - - ESE 4 11 2 6 1027.2 1027.2 -
31/08:30am 11.1 - - - - E 4 11 2 6 1026.9 - -
31/08:00am 11.0 - - - - ESE 2 9 1 5 1026.3 1026.3 -
31/07:30am 10.8 - - - - ESE 2 7 1 4 1025.7 - -
31/07:00am 11.1 - - - - ESE 4 9 2 5 1025.2 1025.2 -
31/06:30am 10.9 - - - - E 4 15 2 8 1024.7 - -
31/06:00am 11.6 - - - - ESE 4 15 2 8 1024.1 1024.1 -
31/05:30am 12.1 - - - - SSE 6 19 3 10 1023.9 - -
31/05:00am 12.5 - - - - SSE 9 24 5 13 1023.6 1023.6 -
31/04:30am 12.9 - - - - SSE 15 30 8 16 1023.3 - -
31/04:00am 13.4 - - - - SSE 15 28 8 15 1023.3 1023.3 -
31/03:30am 13.7 - - - - SSE 13 28 7 15 1023.3 - -
31/03:00am 14.1 - - - - SSE 15 26 8 14 1023.0 1023.0 -
31/02:30am 14.4 - - - - S 9 22 5 12 1022.7 - -
31/02:00am 14.7 - - - - S 11 24 6 13 1022.5 1022.5 -
31/01:30am 14.9 - - - - SSE 6 13 3 7 1022.5 - -
31/01:00am 15.4 - - - - S 9 24 5 13 1022.4 1022.4 -
31/12:30am 16.6 - - - - SW 11 22 6 12 1022.2 - -
31/12:00am 16.5 - - - - SW 19 32 10 17 1022.2 1022.2 -
 
Date/Time
WST
Temp
°C
App
Temp
°C
Dew
Point
Rel
Hum
%
Delta-T
°C
Wind Press
QNH
hPa
Press
MSL
hPa
Rain
since 9 am
mm
Dir
 
Spd
km/h
Gust
km/h
Spd
kts
Gust
kts
30/11:30pm 16.4 - - - - S 7 17 4 9 1022.0 - -
30/11:00pm 17.3 - - - - SW 20 30 11 16 1022.0 1022.0 -
30/10:30pm 17.4 - - - - SW 19 26 10 14 1021.9 - -
30/10:00pm 17.1 - - - - SW 19 26 10 14 1021.9 1021.9 -
30/09:30pm 17.0 - - - - SW 20 30 11 16 1021.9 - -
30/09:00pm 16.7 - - - - WSW 22 30 12 16 1021.9 1021.9 -
30/08:30pm 16.6 - - - - WSW 19 24 10 13 1021.9 - -
30/08:00pm 15.6 - - - - WSW 15 24 8 13 1022.0 1022.0 -
30/07:30pm 16.4 - - - - WSW 30 39 16 21 1021.8 - -
30/07:00pm 17.6 - - - - WSW 20 37 11 20 1021.5 1021.5 -
30/06:30pm 17.8 - - - - W 15 22 8 12 1021.3 - -
30/06:00pm 17.8 - - - - W 15 22 8 12 1021.3 1021.3 -
30/05:30pm 17.8 - - - - WSW 22 32 12 17 1021.4 - -
30/05:00pm 17.8 - - - - W 17 24 9 13 1021.4 1021.4 -
30/04:30pm 17.7 - - - - WSW 22 32 12 17 1021.1 - -
30/04:00pm 17.8 - - - - WSW 26 35 14 19 1021.1 1021.1 -
30/03:30pm 17.7 - - - - WSW 26 33 14 18 1021.1 - -
30/03:00pm 17.7 - - - - W 15 22 8 12 1020.9 1020.9 -
30/02:30pm 17.6 - - - - W 17 24 9 13 1020.8 - -
30/02:00pm 17.6 - - - - W 19 28 10 15 1020.9 1020.9 -
30/01:30pm 17.5 - - - - W 17 24 9 13 1021.0 - -
30/01:00pm 17.5 - - - - WNW 15 22 8 12 1021.1 1021.1 -
30/12:30pm 17.4 - - - - W 13 20 7 11 1021.2 - -
30/12:00pm 17.5 - - - - W 17 26 9 14 1021.4 1021.4 -
30/11:30am 17.3 - - - - WSW 19 26 10 14 1021.7 - -
30/11:00am 17.2 - - - - WSW 19 24 10 13 1022.0 1022.0 -
30/10:30am 17.2 - - - - WSW 17 22 9 12 1022.1 - -
30/10:00am 17.4 - - - - W 19 30 10 16 1022.3 1022.3 -
30/09:30am 17.3 - - - - WNW 11 19 6 10 1022.1 - -
30/09:00am 17.1 - - - - W 15 22 8 12 1022.0 1022.0 -
30/08:30am 17.1 - - - - W 19 32 10 17 1021.8 - -
30/08:00am 17.3 - - - - W 15 22 8 12 1021.6 1021.6 -
30/07:30am 17.2 - - - - W 15 24 8 13 1021.5 - -
30/07:00am 17.3 - - - - W 19 32 10 17 1021.3 1021.3 -
30/06:30am 17.2 - - - - W 17 28 9 15 1021.2 - -
30/06:00am 17.2 - - - - WSW 17 26 9 14 1021.3 1021.3 -
30/05:30am 17.3 - - - - W 17 26 9 14 1021.2 - -
30/05:00am 17.2 - - - - WNW 13 20 7 11 1021.2 1021.2 -
30/04:30am 17.1 - - - - W 13 22 7 12 1021.2 - -
30/04:00am 17.1 - - - - W 19 30 10 16 1021.2 1021.2 -
30/03:30am 17.2 - - - - W 17 26 9 14 1021.4 - -
30/03:00am 17.2 - - - - W 11 22 6 12 1021.5 1021.5 -
30/02:30am 17.0 - - - - W 13 20 7 11 1021.9 - -
30/02:00am 17.0 - - - - W 20 30 11 16 1022.2 1022.2 -
30/01:30am 17.2 - - - - W 17 24 9 13 1022.4 - -
30/01:00am 17.1 - - - - WNW 13 19 7 10 1022.4 1022.4 -
30/12:30am 16.9 - - - - W 11 19 6 10 1022.7 - -
30/12:00am 17.2 - - - - WNW 13 24 7 13 1022.7 1022.7 -
 
Date/Time
WST
Temp
°C
App
Temp
°C
Dew
Point
Rel
Hum
%
Delta-T
°C
Wind Press
QNH
hPa
Press
MSL
hPa
Rain
since 9 am
mm
Dir
 
Spd
km/h
Gust
km/h
Spd
kts
Gust
kts
29/11:30pm 17.2 - - - - W 15 22 8 12 1022.8 - -
29/11:00pm 17.3 - - - - W 17 26 9 14 1022.9 1022.9 -
29/10:30pm 17.2 - - - - W 15 24 8 13 1022.9 - -
29/10:00pm 17.5 - - - - W 13 26 7 14 1022.8 1022.8 -
29/09:30pm 17.5 - - - - W 13 24 7 13 1022.9 - -
29/09:00pm 17.5 - - - - W 15 24 8 13 1023.0 1023.0 -
29/08:30pm 17.4 - - - - W 15 22 8 12 1023.0 - -
29/08:00pm 17.4 - - - - W 17 26 9 14 1023.0 1023.0 -
29/07:30pm 17.4 - - - - W 15 26 8 14 1023.2 - -
29/07:00pm 17.4 - - - - W 17 28 9 15 1023.0 1023.0 -
29/06:30pm 17.6 - - - - W 15 22 8 12 1023.0 - -
29/06:00pm 17.5 - - - - W 13 20 7 11 1022.9 1022.9 -
29/05:30pm 17.3 - - - - W 13 20 7 11 1022.7 - -
29/05:00pm 16.9 - - - - WSW 9 13 5 7 1022.6 1022.6 -
29/04:30pm 17.1 - - - - WSW 11 17 6 9 1022.6 - -
29/04:00pm 17.1 - - - - W 13 20 7 11 1022.6 1022.6 -
29/03:30pm 17.1 - - - - W 13 26 7 14 1022.7 - -
29/03:00pm 17.4 - - - - WSW 13 20 7 11 1022.6 1022.6 -
29/02:30pm 17.6 - - - - W 15 24 8 13 1022.5 - -
29/02:00pm 17.6 - - - - W 15 22 8 12 1022.5 1022.5 -
29/01:30pm 17.6 - - - - W 15 22 8 12 1022.6 - -
29/01:00pm 17.9 - - - - W 13 22 7 12 1022.6 1022.6 -
29/12:30pm 17.7 - - - - W 11 19 6 10 1022.8 - -
29/12:00pm 17.4 - - - - W 13 19 7 10 1023.1 1023.1 -
29/11:30am 17.6 - - - - W 11 17 6 9 1023.5 - -
29/11:00am 17.4 - - - - WSW 13 20 7 11 1023.7 1023.7 -
29/10:30am 17.2 - - - - W 11 17 6 9 1024.0 - -
29/10:00am 17.0 - - - - W 13 22 7 12 1024.3 1024.3 -
29/09:30am 17.1 - - - - W 15 22 8 12 1024.3 - -
29/09:00am 16.3 - - - - NNW 11 20 6 11 1024.0 1024.0 -
29/08:30am 16.7 - - - - WSW 17 24 9 13 1023.7 - -
29/08:00am 16.4 - - - - WSW 9 15 5 8 1023.3 1023.3 -
29/07:30am 16.5 - - - - WSW 22 37 12 20 1022.9 - -
29/07:00am 17.5 - - - - W 15 22 8 12 1022.4 1022.4 -
29/06:30am 17.4 - - - - W 15 22 8 12 1022.2 - -
29/06:00am 17.3 - - - - W 17 26 9 14 1022.0 1022.0 -

Other Formats:

Comma delimited format used in spreadsheet applications
http://www.bom.gov.au/fwo/IDW60801/IDW60801.95605.axf

JavaScript Object Notation format (JSON) in row-major order
http://www.bom.gov.au/fwo/IDW60801/IDW60801.95605.json